createdAt,value
2018-10-18T00:00:56.149Z,8.10
2018-10-18T00:06:00.268Z,7.70
2018-10-18T00:11:05.606Z,7.93
2018-10-18T00:16:10.092Z,8.60
2018-10-18T00:21:14.283Z,9.33
2018-10-18T00:26:18.372Z,7.77
2018-10-18T00:31:22.548Z,8.60
2018-10-18T00:36:26.642Z,9.03
2018-10-18T00:41:31.484Z,9.13
2018-10-18T00:46:35.805Z,8.90
2018-10-18T00:51:40.599Z,9.60
2018-10-18T00:56:44.849Z,8.27
2018-10-18T01:01:48.920Z,9.50
2018-10-18T01:06:53.001Z,8.47
2018-10-18T01:11:57.868Z,9.20
2018-10-18T01:17:03.252Z,8.83
2018-10-18T01:29:40.656Z,8.80
2018-10-18T01:34:44.872Z,9.23
2018-10-18T01:39:48.961Z,9.30
2018-10-18T01:44:53.135Z,9.30
2018-10-18T01:49:57.951Z,8.83
2018-10-18T01:55:02.516Z,8.57
2018-10-18T02:00:08.367Z,8.43
2018-10-18T02:05:12.632Z,9.13
2018-10-18T02:10:17.182Z,9.37
2018-10-18T02:15:21.773Z,9.53
2018-10-18T02:20:26.418Z,8.83
2018-10-18T02:25:30.573Z,10.20
2018-10-18T02:30:34.673Z,9.57
2018-10-18T02:35:38.998Z,9.00
2018-10-18T02:40:43.308Z,9.80
2018-10-18T02:45:47.600Z,9.13
2018-10-18T02:50:52.355Z,9.03
2018-10-18T02:55:56.433Z,8.23
2018-10-18T03:01:00.584Z,8.90
2018-10-18T03:06:04.781Z,9.67
2018-10-18T03:11:09.843Z,10.90
2018-10-18T03:16:14.470Z,10.00
2018-10-18T03:21:18.945Z,8.77
2018-10-18T03:26:23.077Z,9.30
2018-10-18T03:31:27.294Z,9.37
2018-10-18T03:36:32.336Z,9.20
2018-10-18T03:41:37.110Z,9.37
2018-10-18T03:46:42.261Z,9.20
2018-10-18T03:51:46.456Z,10.27
2018-10-18T03:56:51.470Z,9.50
2018-10-18T04:01:56.148Z,9.20
2018-10-18T04:07:00.458Z,9.67
2018-10-18T04:12:05.128Z,9.13
2018-10-18T04:17:10.198Z,10.10
2018-10-18T04:22:14.544Z,10.08
2018-10-18T04:27:19.096Z,9.30
2018-10-18T04:32:23.645Z,8.97
2018-10-18T04:37:27.796Z,9.43
2018-10-18T04:42:31.867Z,9.40
2018-10-18T04:47:41.903Z,9.43
2018-10-18T04:52:46.561Z,9.23
2018-10-18T04:57:50.751Z,10.13
2018-10-18T05:02:54.938Z,9.75
2018-10-18T05:07:59.027Z,9.40
2018-10-18T05:13:04.033Z,10.13
2018-10-18T05:18:08.961Z,9.47
2018-10-18T05:23:13.071Z,9.23
2018-10-18T05:28:17.404Z,9.90
2018-10-18T05:33:21.585Z,9.78
2018-10-18T05:38:26.311Z,11.18
2018-10-18T05:43:30.835Z,9.53
2018-10-18T05:48:35.421Z,9.60
2018-10-18T05:53:39.602Z,8.77
2018-10-18T05:58:43.624Z,8.43
2018-10-18T06:03:47.673Z,11.60
2018-10-18T06:08:53.730Z,9.13
2018-10-18T06:13:58.088Z,9.30
2018-10-18T06:19:02.226Z,12.47
2018-10-18T06:24:06.315Z,8.83
2018-10-18T06:29:11.422Z,8.07
2018-10-18T06:34:15.671Z,8.53
2018-10-18T06:39:20.176Z,10.88
2018-10-18T06:44:24.104Z,9.25
2018-10-18T06:49:28.247Z,7.92
2018-10-18T06:54:32.354Z,8.85
2018-10-18T06:59:37.150Z,8.03
2018-10-18T07:04:42.619Z,9.13
2018-10-18T07:09:46.878Z,8.20
2018-10-18T07:14:51.003Z,8.20
2018-10-18T07:19:55.115Z,9.03
2018-10-18T07:24:59.927Z,8.57
2018-10-18T07:30:05.547Z,9.00
2018-10-18T07:35:10.779Z,10.50
2018-10-18T07:40:16.167Z,8.87
2018-10-18T07:45:20.783Z,7.80
2018-10-18T07:50:24.887Z,8.80
2018-10-18T07:55:29.043Z,7.08
2018-10-18T08:00:33.212Z,8.10
2018-10-18T08:05:37.968Z,7.53
2018-10-18T08:10:43.023Z,7.87
2018-10-18T08:15:47.264Z,8.53
2018-10-18T08:20:51.345Z,8.83
2018-10-18T08:25:55.429Z,10.13
2018-10-18T08:30:59.608Z,9.80
2018-10-18T08:36:04.624Z,9.73
2018-10-18T08:41:10.052Z,9.50
2018-10-18T08:46:14.637Z,9.00
2018-10-18T08:51:19.195Z,9.98
2018-10-18T08:56:23.795Z,10.45
2018-10-18T09:01:27.896Z,10.33
2018-10-18T09:06:32.161Z,9.93
2018-10-18T09:11:37.125Z,10.40
2018-10-18T09:16:41.600Z,9.70
2018-10-18T09:21:46.598Z,11.35
2018-10-18T09:26:50.733Z,13.30
2018-10-18T09:31:54.819Z,13.77
2018-10-18T09:36:59.012Z,14.10
2018-10-18T09:42:03.669Z,14.87
2018-10-18T09:47:07.948Z,15.00
2018-10-18T09:52:12.839Z,15.35
2018-10-18T09:57:16.968Z,16.05
2018-10-18T10:02:26.757Z,18.07
2018-10-18T10:07:30.834Z,16.27
2018-10-18T10:12:36.013Z,17.57
2018-10-18T10:17:40.763Z,16.80
2018-10-18T10:22:45.927Z,18.57
2018-10-18T10:27:50.052Z,17.10
2018-10-18T10:32:54.858Z,18.17
2018-10-18T10:37:59.058Z,19.50
2018-10-18T10:43:03.245Z,20.45
2018-10-18T10:48:07.913Z,20.00
2018-10-18T10:53:12.074Z,19.17
2018-10-18T10:58:16.290Z,23.83
2018-10-18T11:03:21.023Z,19.53
2018-10-18T11:08:25.656Z,19.42
2018-10-18T11:13:30.515Z,18.30
2018-10-18T11:18:36.725Z,21.20
2018-10-18T11:23:41.633Z,18.48
2018-10-18T11:28:46.135Z,19.72
2018-10-18T11:33:50.204Z,18.82
2018-10-18T11:38:54.350Z,19.05
2018-10-18T11:43:58.943Z,17.17
2018-10-18T11:49:03.568Z,18.02
2018-10-18T11:54:07.978Z,18.82
2018-10-18T11:59:12.516Z,17.70
2018-10-18T12:04:17.831Z,15.93
2018-10-18T12:09:22.658Z,18.37
2018-10-18T12:14:26.881Z,16.43
2018-10-18T12:19:31.218Z,14.35
2018-10-18T12:24:35.923Z,15.03
2018-10-18T12:29:40.585Z,14.80
2018-10-18T12:34:44.742Z,13.88
2018-10-18T12:39:48.996Z,14.20
2018-10-18T12:44:53.241Z,12.40
2018-10-18T12:49:57.979Z,12.20
2018-10-18T12:55:02.596Z,12.63
2018-10-18T13:00:09.504Z,12.05
2018-10-18T13:05:14.023Z,13.20
2018-10-18T13:10:18.416Z,12.35
2018-10-18T13:15:22.729Z,12.20
2018-10-18T13:20:26.878Z,13.18
2018-10-18T13:25:30.990Z,13.58
2018-10-18T13:30:35.412Z,12.05
2018-10-18T13:35:40.297Z,12.50
2018-10-18T13:40:44.761Z,12.95
2018-10-18T13:45:49.156Z,12.98
2018-10-18T13:50:53.347Z,12.45
2018-10-18T13:55:57.649Z,12.05
2018-10-18T14:01:02.501Z,10.87
2018-10-18T14:06:07.410Z,10.63
2018-10-18T14:11:11.992Z,10.58
2018-10-18T14:16:16.295Z,10.08
2018-10-18T14:21:21.195Z,11.18
2018-10-18T14:26:25.308Z,10.38
2018-10-18T14:31:30.453Z,10.18
2018-10-18T14:36:34.722Z,10.30
2018-10-18T14:41:39.143Z,10.93
2018-10-18T14:46:44.072Z,10.35
2018-10-18T14:51:48.347Z,9.90
2018-10-18T14:56:52.426Z,11.65
2018-10-18T15:01:56.561Z,9.77
2018-10-18T15:07:00.679Z,10.17
2018-10-18T15:12:06.001Z,10.82
2018-10-18T15:17:10.784Z,9.83
2018-10-18T15:22:17.018Z,10.18
2018-10-18T15:27:23.484Z,10.72
2018-10-18T15:32:27.493Z,10.72
2018-10-18T15:37:31.519Z,10.47
2018-10-18T15:42:36.032Z,10.93
2018-10-18T15:47:40.759Z,9.38
2018-10-18T15:52:45.348Z,11.60
2018-10-18T15:57:49.541Z,12.90
2018-10-18T16:02:53.730Z,11.88
2018-10-18T16:07:57.899Z,12.53
2018-10-18T16:13:02.360Z,13.05
2018-10-18T16:18:06.809Z,12.20
2018-10-18T16:23:11.230Z,11.97
2018-10-18T16:28:15.590Z,13.83
2018-10-18T16:33:19.696Z,12.73
2018-10-18T16:38:24.729Z,10.95
2018-10-18T16:43:29.393Z,10.97
2018-10-18T16:48:33.685Z,11.25
2018-10-18T16:53:38.491Z,12.57
2018-10-18T16:58:42.918Z,11.77
2018-10-18T17:03:47.246Z,10.97
2018-10-18T17:08:51.775Z,11.43
2018-10-18T17:13:56.276Z,13.37
2018-10-18T17:19:00.428Z,10.03
2018-10-18T17:24:04.963Z,9.87
2018-10-18T17:29:09.896Z,8.90
2018-10-18T17:34:14.147Z,9.60
2018-10-18T17:39:18.248Z,10.33
2018-10-18T17:44:22.420Z,9.17
2018-10-18T17:49:26.767Z,8.77
2018-10-18T17:54:31.168Z,9.38
2018-10-18T17:59:35.730Z,9.78
2018-10-18T18:04:40.356Z,10.70
2018-10-18T18:09:44.754Z,10.27
2018-10-18T18:14:48.966Z,10.30
2018-10-18T18:19:53.755Z,10.30
2018-10-18T18:24:58.351Z,11.57
2018-10-18T18:30:03.808Z,12.13
2018-10-18T18:35:08.607Z,11.53
2018-10-18T18:40:12.885Z,12.03
2018-10-18T18:45:22.744Z,14.07
2018-10-18T18:50:27.234Z,13.60
2018-10-18T18:55:31.453Z,12.00
2018-10-18T19:00:35.726Z,13.53
2018-10-18T19:05:40.784Z,13.17
2018-10-18T19:10:45.402Z,14.20
2018-10-18T19:15:51.004Z,13.20
2018-10-18T19:20:56.486Z,14.98
2018-10-18T19:26:01.577Z,13.40
2018-10-18T19:31:05.977Z,14.70
2018-10-18T19:36:10.452Z,14.53
2018-10-18T19:41:14.961Z,13.57
2018-10-18T19:46:19.756Z,13.33
2018-10-18T19:51:23.837Z,15.37
2018-10-18T19:56:28.140Z,15.23
2018-10-18T20:01:32.620Z,13.13
2018-10-18T20:06:37.643Z,13.27
2018-10-18T20:11:42.541Z,16.40
2018-10-18T20:16:47.028Z,14.20
2018-10-18T20:21:52.532Z,13.53
2018-10-18T20:26:56.971Z,14.57
2018-10-18T20:32:01.102Z,13.40
2018-10-18T20:37:05.544Z,15.17
2018-10-18T20:42:09.957Z,16.97
2018-10-18T20:47:14.622Z,16.07
2018-10-18T20:52:18.948Z,17.27
2018-10-18T20:57:23.289Z,17.67
2018-10-18T21:02:27.489Z,15.88
2018-10-18T21:07:31.684Z,15.37
2018-10-18T21:12:37.415Z,14.70
2018-10-18T21:17:42.178Z,15.73
2018-10-18T21:22:46.824Z,16.17
2018-10-18T21:27:52.118Z,16.67
2018-10-18T21:32:56.665Z,15.10
2018-10-18T21:38:01.220Z,16.00
2018-10-18T21:43:05.434Z,16.57
2018-10-18T21:48:09.943Z,17.33
2018-10-18T21:53:15.019Z,19.63
2018-10-18T21:58:19.307Z,15.07
2018-10-18T22:03:23.737Z,16.77
2018-10-18T22:08:28.202Z,15.80
2018-10-18T22:13:32.618Z,15.80
2018-10-18T22:18:37.421Z,15.57
2018-10-18T22:23:41.654Z,16.00
2018-10-18T22:28:46.091Z,16.00
2018-10-18T22:33:50.423Z,17.33
2018-10-18T22:38:55.568Z,17.87
2018-10-18T22:44:00.104Z,17.23
2018-10-18T22:49:04.465Z,15.58
2018-10-18T22:54:08.843Z,15.30
2018-10-18T22:59:14.898Z,18.63
2018-10-18T23:04:19.303Z,18.40
2018-10-18T23:09:23.402Z,18.83
2018-10-18T23:14:27.477Z,19.23
2018-10-18T23:19:32.464Z,18.07
2018-10-18T23:24:39.095Z,17.33
2018-10-18T23:29:43.528Z,18.20
2018-10-18T23:34:48.443Z,16.67
2018-10-18T23:39:53.515Z,18.53
2018-10-18T23:44:57.638Z,17.70
2018-10-18T23:50:01.801Z,17.90
2018-10-18T23:55:06.559Z,17.00
